createdAt,value
2023-04-01T00:01:12.889Z,8.03
2023-04-01T00:03:39.378Z,7.90
2023-04-01T00:06:06.624Z,7.95
2023-04-01T00:08:33.111Z,7.99
2023-04-01T00:10:59.604Z,8.06
2023-04-01T00:13:27.403Z,8.03
2023-04-01T00:15:56.043Z,8.02
2023-04-01T00:18:22.950Z,8.13
2023-04-01T00:20:51.318Z,8.15
2023-04-01T00:23:18.442Z,8.13
2023-04-01T00:25:46.533Z,7.99
2023-04-01T00:28:12.918Z,8.02
2023-04-01T00:30:39.365Z,8.03
2023-04-01T00:33:05.954Z,8.01
2023-04-01T00:35:33.430Z,7.96
2023-04-01T00:38:00.491Z,7.77
2023-04-01T00:40:36.338Z,7.82
2023-04-01T00:43:03.919Z,7.78
2023-04-01T00:45:39.325Z,7.69
2023-04-01T00:48:11.124Z,7.73
2023-04-01T00:50:40.324Z,7.79
2023-04-01T00:53:08.069Z,7.76
2023-04-01T00:55:38.457Z,7.78
2023-04-01T00:58:09.803Z,7.80
2023-04-01T01:00:37.484Z,7.78
2023-04-01T01:03:04.236Z,7.74
2023-04-01T01:05:49.607Z,7.79
2023-04-01T01:08:20.724Z,7.78
2023-04-01T01:10:50.873Z,7.74
2023-04-01T01:13:37.089Z,7.74
2023-04-01T01:16:24.050Z,7.67
2023-04-01T01:19:32.482Z,7.65
2023-04-01T01:22:17.180Z,7.52
2023-04-01T01:25:11.130Z,7.40
2023-04-01T01:27:41.194Z,7.27
2023-04-01T01:30:13.370Z,7.28
2023-04-01T01:33:06.762Z,7.41
2023-04-01T01:35:41.603Z,7.29
2023-04-01T01:38:12.514Z,7.22
2023-04-01T01:40:43.935Z,7.22
2023-04-01T01:43:14.990Z,7.30
2023-04-01T01:45:49.764Z,7.36
2023-04-01T01:48:18.266Z,7.33
2023-04-01T01:50:46.874Z,7.38
2023-04-01T01:53:14.616Z,7.47
2023-04-01T01:55:43.903Z,7.50
2023-04-01T01:58:23.197Z,7.53
2023-04-01T02:00:54.048Z,7.27
2023-04-01T02:03:23.902Z,7.26
2023-04-01T02:05:53.706Z,7.36
2023-04-01T02:08:31.759Z,7.45
2023-04-01T02:11:05.961Z,7.51
2023-04-01T02:13:40.435Z,7.47
2023-04-01T02:16:16.191Z,7.43
2023-04-01T02:18:46.107Z,7.49
2023-04-01T02:21:13.312Z,7.49
2023-04-01T02:23:40.392Z,7.47
2023-04-01T02:26:10.684Z,7.42
2023-04-01T02:28:39.622Z,7.42
2023-04-01T02:31:06.664Z,7.32
2023-04-01T02:33:33.217Z,7.28
2023-04-01T02:36:00.372Z,7.31
2023-04-01T02:38:27.022Z,7.36
2023-04-01T02:40:59.047Z,7.43
2023-04-01T02:43:25.603Z,7.35
2023-04-01T02:45:52.356Z,7.31
2023-04-01T02:48:18.776Z,7.14
2023-04-01T02:50:45.285Z,7.22
2023-04-01T02:53:12.275Z,7.08
2023-04-01T02:55:39.087Z,7.18
2023-04-01T02:58:05.681Z,7.17
2023-04-01T03:00:32.092Z,7.16
2023-04-01T03:02:58.887Z,7.07
2023-04-01T03:05:26.019Z,6.88
2023-04-01T03:07:52.465Z,6.93
2023-04-01T03:10:19.003Z,6.97
2023-04-01T03:12:45.450Z,6.95
2023-04-01T03:15:15.203Z,6.94
2023-04-01T03:17:42.846Z,6.81
2023-04-01T03:20:11.621Z,6.83
2023-04-01T03:22:39.662Z,6.82
2023-04-01T03:25:08.922Z,6.69
2023-04-01T03:27:36.570Z,6.73
2023-04-01T03:30:05.747Z,6.74
2023-04-01T03:32:32.232Z,6.77
2023-04-01T03:34:58.864Z,6.73
2023-04-01T03:37:25.939Z,6.84
2023-04-01T03:39:52.461Z,6.93
2023-04-01T03:42:18.846Z,6.88
2023-04-01T03:44:45.483Z,6.86
2023-04-01T03:47:11.830Z,6.81
2023-04-01T03:49:38.279Z,6.85
2023-04-01T03:52:04.668Z,6.85
2023-04-01T03:54:31.027Z,6.84
2023-04-01T03:56:58.948Z,6.81
2023-04-01T03:59:25.382Z,6.84
2023-04-01T04:01:51.768Z,6.76
2023-04-01T04:04:18.677Z,6.66
2023-04-01T04:06:45.123Z,6.65
2023-04-01T04:09:11.578Z,6.69
2023-04-01T04:11:38.096Z,6.72
2023-04-01T04:14:04.488Z,6.64
2023-04-01T04:16:31.038Z,6.51
2023-04-01T04:18:57.666Z,6.50
2023-04-01T04:21:24.283Z,6.54
2023-04-01T04:23:51.573Z,6.60
2023-04-01T04:26:18.084Z,6.57
2023-04-01T04:28:44.708Z,6.45
2023-04-01T04:31:11.210Z,6.22
2023-04-01T04:33:37.934Z,6.37
2023-04-01T04:36:05.466Z,6.38
2023-04-01T04:38:32.171Z,6.17
2023-04-01T04:40:58.541Z,6.31
2023-04-01T04:43:24.952Z,6.31
2023-04-01T04:45:51.889Z,6.46
2023-04-01T04:48:19.913Z,6.46
2023-04-01T04:50:50.777Z,6.21
2023-04-01T04:53:19.441Z,6.41
2023-04-01T04:55:48.151Z,6.41
2023-04-01T04:58:15.088Z,6.26
2023-04-01T05:00:42.107Z,6.37
2023-04-01T05:03:08.994Z,6.36
2023-04-01T05:05:35.477Z,6.39
2023-04-01T05:08:02.202Z,6.31
2023-04-01T05:10:28.994Z,6.37
2023-04-01T05:12:55.509Z,6.36
2023-04-01T05:15:22.119Z,6.32
2023-04-01T05:17:48.703Z,6.32
2023-04-01T05:20:15.777Z,6.24
2023-04-01T05:22:42.399Z,6.41
2023-04-01T05:25:09.188Z,6.32
2023-04-01T05:27:35.699Z,6.43
2023-04-01T05:30:02.267Z,6.53
2023-04-01T05:32:28.673Z,6.50
2023-04-01T05:34:55.165Z,6.42
2023-04-01T05:37:21.577Z,6.34
2023-04-01T05:39:47.993Z,6.40
2023-04-01T05:42:14.675Z,6.40
2023-04-01T05:44:41.075Z,6.42
2023-04-01T05:47:07.800Z,6.39
2023-04-01T05:49:34.839Z,6.44
2023-04-01T05:52:01.215Z,6.47
2023-04-01T05:54:27.675Z,6.50
2023-04-01T05:56:54.048Z,6.48
2023-04-01T05:59:20.456Z,6.53
2023-04-01T06:01:46.915Z,6.42
2023-04-01T06:04:18.117Z,6.42
2023-04-01T06:06:45.298Z,6.41
2023-04-01T06:09:20.406Z,6.43
2023-04-01T06:12:21.118Z,6.58
2023-04-01T06:15:00.956Z,6.45
2023-04-01T06:17:36.188Z,6.55
2023-04-01T06:20:26.688Z,6.60
2023-04-01T06:23:16.387Z,6.65
2023-04-01T06:26:04.057Z,6.66
2023-04-01T06:28:41.716Z,6.60
2023-04-01T06:31:40.895Z,6.64
2023-04-01T06:34:36.533Z,6.66
2023-04-01T06:37:27.808Z,6.80
2023-04-01T06:40:17.133Z,6.76
2023-04-01T06:42:46.253Z,6.86
2023-04-01T06:45:35.541Z,6.92
2023-04-01T06:48:20.890Z,7.37
2023-04-01T06:51:16.489Z,8.06
2023-04-01T06:53:51.860Z,8.37
2023-04-01T06:56:21.696Z,8.94
2023-04-01T06:58:55.734Z,9.47
2023-04-01T07:01:28.905Z,9.89
2023-04-01T07:04:02.008Z,10.18
2023-04-01T07:06:36.572Z,10.56
2023-04-01T07:09:10.281Z,10.84
2023-04-01T07:11:39.572Z,10.95
2023-04-01T07:14:18.101Z,11.29
2023-04-01T07:17:21.859Z,11.63
2023-04-01T07:19:54.564Z,11.76
2023-04-01T07:22:46.270Z,11.90
2023-04-01T07:25:26.613Z,11.90
2023-04-01T07:28:03.519Z,11.95
2023-04-01T07:30:43.972Z,12.15
2023-04-01T07:33:20.856Z,12.34
2023-04-01T07:36:12.782Z,12.47
2023-04-01T07:39:04.509Z,12.41
2023-04-01T07:41:41.685Z,12.67
2023-04-01T07:44:13.227Z,12.56
2023-04-01T07:46:48.927Z,12.44
2023-04-01T07:49:21.369Z,12.11
2023-04-01T07:52:01.192Z,11.89
2023-04-01T07:54:46.250Z,11.69
2023-04-01T07:57:23.349Z,11.59
2023-04-01T08:00:18.686Z,11.53
2023-04-01T08:03:24.250Z,11.35
2023-04-01T08:05:53.659Z,11.27
2023-04-01T08:08:26.137Z,11.29
2023-04-01T08:11:21.541Z,11.29
2023-04-01T08:14:25.709Z,11.29
2023-04-01T08:17:34.648Z,11.47
2023-04-01T08:20:14.151Z,11.51
2023-04-01T08:22:49.756Z,11.55
2023-04-01T08:25:25.296Z,11.46
2023-04-01T08:28:00.832Z,11.44
2023-04-01T08:30:42.046Z,11.37
2023-04-01T08:33:23.225Z,11.41
2023-04-01T08:36:06.653Z,11.42
2023-04-01T08:38:37.112Z,11.47
2023-04-01T08:41:52.282Z,11.47
2023-04-01T08:44:53.069Z,11.55
2023-04-01T08:47:46.113Z,11.60
2023-04-01T08:50:37.230Z,11.85
2023-04-01T08:53:40.809Z,11.95
2023-04-01T08:56:23.247Z,11.94
2023-04-01T08:59:11.505Z,11.91
2023-04-01T09:01:43.985Z,12.06
2023-04-01T09:04:53.461Z,12.16
2023-04-01T09:07:44.926Z,12.22
2023-04-01T09:10:30.161Z,12.18
2023-04-01T09:13:16.340Z,12.16
2023-04-01T09:16:04.389Z,12.19
2023-04-01T09:18:49.367Z,12.15
2023-04-01T09:21:41.454Z,12.16
2023-04-01T09:24:11.036Z,12.29
2023-04-01T09:27:08.096Z,12.35
2023-04-01T09:30:19.780Z,12.39
2023-04-01T09:33:07.704Z,12.41
2023-04-01T09:35:48.321Z,12.33
2023-04-01T09:38:24.741Z,12.39
2023-04-01T09:41:30.257Z,12.57
2023-04-01T09:43:59.756Z,12.76
2023-04-01T09:47:03.730Z,12.76
2023-04-01T09:49:36.287Z,12.83
2023-04-01T09:52:36.997Z,12.79
2023-04-01T09:55:09.636Z,12.84
2023-04-01T09:58:17.604Z,12.89
2023-04-01T10:01:05.701Z,12.89
2023-04-01T10:03:41.103Z,13.02
2023-04-01T10:06:26.061Z,13.11
2023-04-01T10:09:29.712Z,13.23
2023-04-01T10:12:20.618Z,13.19
2023-04-01T10:14:59.290Z,13.24
2023-04-01T10:17:53.276Z,13.53
2023-04-01T10:20:57.493Z,13.63
2023-04-01T10:23:32.158Z,13.61
2023-04-01T10:26:01.170Z,13.66
2023-04-01T10:28:34.255Z,13.67
2023-04-01T10:31:16.157Z,13.55
2023-04-01T10:34:06.594Z,13.43
2023-04-01T10:36:48.992Z,13.40
2023-04-01T10:39:44.038Z,13.40
2023-04-01T10:42:47.985Z,13.49
2023-04-01T10:45:31.819Z,13.54
2023-04-01T10:48:36.274Z,13.57
2023-04-01T10:51:27.324Z,13.55
2023-04-01T10:54:16.831Z,13.71
2023-04-01T10:56:56.047Z,13.86
2023-04-01T10:59:25.498Z,13.68
2023-04-01T11:02:12.188Z,13.72
2023-04-01T11:05:08.454Z,13.87
2023-04-01T11:08:07.405Z,13.91
2023-04-01T11:11:03.300Z,13.89
2023-04-01T11:13:51.629Z,14.01
2023-04-01T11:16:21.202Z,14.15
2023-04-01T11:19:15.735Z,14.24
2023-04-01T11:22:12.641Z,14.35
2023-04-01T11:24:46.420Z,14.31
2023-04-01T11:27:51.709Z,14.32
2023-04-01T11:30:29.675Z,14.32
2023-04-01T11:33:33.807Z,14.32
2023-04-01T11:36:19.149Z,14.25
2023-04-01T11:39:13.661Z,14.24
2023-04-01T11:41:50.347Z,14.29
2023-04-01T11:44:24.107Z,14.34
2023-04-01T11:47:09.089Z,14.36
2023-04-01T11:49:58.026Z,14.27
2023-04-01T11:52:33.361Z,14.29
2023-04-01T11:55:25.973Z,14.39
2023-04-01T11:58:12.764Z,14.38
2023-04-01T12:00:39.042Z,14.39
2023-04-01T12:03:27.363Z,14.37
2023-04-01T12:06:02.886Z,14.40
2023-04-01T12:08:41.167Z,14.41
2023-04-01T12:11:36.047Z,14.36
2023-04-01T12:14:20.542Z,14.53
2023-04-01T12:17:16.044Z,14.75
2023-04-01T12:20:13.458Z,14.74
2023-04-01T12:23:17.692Z,14.63
2023-04-01T12:25:56.318Z,14.57
2023-04-01T12:29:08.329Z,14.60
2023-04-01T12:32:22.726Z,14.56
2023-04-01T12:34:59.591Z,14.55
2023-04-01T12:37:50.273Z,14.50
2023-04-01T12:40:39.820Z,14.50
2023-04-01T12:43:25.132Z,14.54
2023-04-01T12:46:00.842Z,14.62
2023-04-01T12:49:00.345Z,14.75
2023-04-01T12:51:29.713Z,14.91
2023-04-01T12:54:20.909Z,14.93
2023-04-01T12:57:05.860Z,14.90
2023-04-01T13:00:00.119Z,14.92
2023-04-01T13:02:35.587Z,14.98
2023-04-01T13:05:29.542Z,15.00
2023-04-01T13:08:00.166Z,14.97
2023-04-01T13:10:39.568Z,14.94
2023-04-01T13:13:16.838Z,14.88
2023-04-01T13:15:53.619Z,15.00
2023-04-01T13:18:29.180Z,15.01
2023-04-01T13:21:19.907Z,15.00
2023-04-01T13:23:53.820Z,15.03
2023-04-01T13:26:33.387Z,14.99
2023-04-01T13:29:02.692Z,15.00
2023-04-01T13:32:16.604Z,14.95
2023-04-01T13:35:06.564Z,14.94
2023-04-01T13:38:10.900Z,14.95
2023-04-01T13:41:03.034Z,14.93
2023-04-01T13:43:53.420Z,14.95
2023-04-01T13:46:36.142Z,15.00
2023-04-01T13:49:07.712Z,14.98
2023-04-01T13:52:08.054Z,14.89
2023-04-01T13:54:52.057Z,14.90
2023-04-01T13:57:42.873Z,14.93
2023-04-01T14:00:22.937Z,14.91
2023-04-01T14:03:12.399Z,14.94
2023-04-01T14:06:04.629Z,14.97
2023-04-01T14:08:34.061Z,14.98
2023-04-01T14:11:20.967Z,14.98
2023-04-01T14:14:10.833Z,15.08
2023-04-01T14:16:56.272Z,15.19
2023-04-01T14:19:51.238Z,15.26
2023-04-01T14:22:36.380Z,15.14
2023-04-01T14:25:24.177Z,15.20
2023-04-01T14:27:56.591Z,15.15
2023-04-01T14:30:42.529Z,15.11
2023-04-01T14:33:40.212Z,15.12
2023-04-01T14:36:37.721Z,15.14
2023-04-01T14:39:22.988Z,15.17
2023-04-01T14:41:50.292Z,15.20
2023-04-01T14:44:50.917Z,15.21
2023-04-01T14:47:47.261Z,15.27
2023-04-01T14:50:18.077Z,15.32
2023-04-01T14:52:53.375Z,15.29
2023-04-01T14:55:42.430Z,15.29
2023-04-01T14:58:18.168Z,15.24
2023-04-01T15:00:47.419Z,15.23
2023-04-01T15:03:21.653Z,15.21
2023-04-01T15:05:51.425Z,15.09
2023-04-01T15:08:31.864Z,15.07
2023-04-01T15:11:02.558Z,15.00
2023-04-01T15:14:07.364Z,15.01
2023-04-01T15:16:48.788Z,15.01
2023-04-01T15:19:28.466Z,15.03
2023-04-01T15:22:25.883Z,15.02
2023-04-01T15:25:19.593Z,14.99
2023-04-01T15:28:02.447Z,14.96
2023-04-01T15:30:34.099Z,15.02
2023-04-01T15:33:24.769Z,14.96
2023-04-01T15:35:51.129Z,14.94
2023-04-01T15:38:39.438Z,14.98
2023-04-01T15:41:14.385Z,14.93
2023-04-01T15:43:49.872Z,14.88
2023-04-01T15:46:45.728Z,14.90
2023-04-01T15:49:39.524Z,14.88
2023-04-01T15:52:25.533Z,14.84
2023-04-01T15:55:09.509Z,14.80
2023-04-01T15:58:01.889Z,14.83
2023-04-01T16:00:49.328Z,14.81
2023-04-01T16:03:38.866Z,14.80
2023-04-01T16:06:34.461Z,14.84
2023-04-01T16:09:27.060Z,14.83
2023-04-01T16:12:12.234Z,14.89
2023-04-01T16:15:04.389Z,14.91
2023-04-01T16:18:23.103Z,14.92
2023-04-01T16:20:58.709Z,15.04
2023-04-01T16:23:43.520Z,15.05
2023-04-01T16:26:27.872Z,14.99
2023-04-01T16:28:56.373Z,15.03
2023-04-01T16:31:28.863Z,15.03
2023-04-01T16:34:07.991Z,15.00
2023-04-01T16:36:37.477Z,15.00
2023-04-01T16:39:19.962Z,14.97
2023-04-01T16:42:07.947Z,14.93
2023-04-01T16:44:52.603Z,14.87
2023-04-01T16:47:25.241Z,14.83
2023-04-01T16:49:57.449Z,14.79
2023-04-01T16:53:01.810Z,14.73
2023-04-01T16:55:43.258Z,14.69
2023-04-01T16:58:11.306Z,14.61
2023-04-01T17:00:48.969Z,14.54
2023-04-01T17:03:30.359Z,14.55
2023-04-01T17:06:12.548Z,14.57
2023-04-01T17:09:02.598Z,14.57
2023-04-01T17:11:54.539Z,14.48
2023-04-01T17:14:31.858Z,14.43
2023-04-01T17:17:13.720Z,14.36
2023-04-01T17:20:24.157Z,14.37
2023-04-01T17:23:11.560Z,14.39
2023-04-01T17:25:52.798Z,14.34
2023-04-01T17:28:32.050Z,14.28
2023-04-01T17:31:18.703Z,14.28
2023-04-01T17:34:00.222Z,14.28
2023-04-01T17:36:34.320Z,14.20
2023-04-01T17:39:23.764Z,14.12
2023-04-01T17:42:07.460Z,14.03
2023-04-01T17:44:58.612Z,14.05
2023-04-01T17:47:41.039Z,14.03
2023-04-01T17:50:26.647Z,13.94
2023-04-01T17:53:16.384Z,13.88
2023-04-01T17:55:58.981Z,13.89
2023-04-01T17:58:30.112Z,13.90
2023-04-01T18:01:21.155Z,13.92
2023-04-01T18:04:16.125Z,13.82
2023-04-01T18:06:48.547Z,13.77
2023-04-01T18:09:33.750Z,13.74
2023-04-01T18:12:22.212Z,13.79
2023-04-01T18:14:54.670Z,13.73
2023-04-01T18:17:46.231Z,13.72
2023-04-01T18:20:31.279Z,13.63
2023-04-01T18:23:36.067Z,13.57
2023-04-01T18:26:11.907Z,13.55
2023-04-01T18:28:42.933Z,13.58
2023-04-01T18:31:22.231Z,13.54
2023-04-01T18:33:54.563Z,13.53
2023-04-01T18:36:44.805Z,13.55
2023-04-01T18:39:19.928Z,13.50
2023-04-01T18:42:34.086Z,13.56
2023-04-01T18:45:21.042Z,13.52
2023-04-01T18:48:03.503Z,13.52
2023-04-01T18:50:29.901Z,13.53
2023-04-01T18:53:39.761Z,13.52
2023-04-01T18:56:10.429Z,13.46
2023-04-01T18:58:49.182Z,13.43
2023-04-01T19:01:27.256Z,13.36
2023-04-01T19:04:05.400Z,13.38
2023-04-01T19:06:41.768Z,13.38
2023-04-01T19:09:31.524Z,13.37
2023-04-01T19:12:29.029Z,13.30
2023-04-01T19:15:10.400Z,13.36
2023-04-01T19:18:20.683Z,13.27
2023-04-01T19:21:12.557Z,13.28
2023-04-01T19:24:10.784Z,13.23
2023-04-01T19:26:47.492Z,13.25
2023-04-01T19:29:39.666Z,13.24
2023-04-01T19:32:21.007Z,13.24
2023-04-01T19:35:12.201Z,13.18
2023-04-01T19:37:51.762Z,13.07
2023-04-01T19:40:44.160Z,13.00
2023-04-01T19:43:25.464Z,13.01
2023-04-01T19:46:22.850Z,12.94
2023-04-01T19:49:13.678Z,12.93
2023-04-01T19:51:52.387Z,13.06
2023-04-01T19:54:33.967Z,13.09
2023-04-01T19:57:25.541Z,13.07
2023-04-01T20:00:02.930Z,13.02
2023-04-01T20:02:36.518Z,13.03
2023-04-01T20:05:17.124Z,13.05
2023-04-01T20:07:52.626Z,13.05
2023-04-01T20:10:31.876Z,13.00
2023-04-01T20:13:12.891Z,12.98
2023-04-01T20:15:45.304Z,12.97
2023-04-01T20:18:19.763Z,12.98
2023-04-01T20:21:15.735Z,12.99
2023-04-01T20:23:56.643Z,12.94
2023-04-01T20:26:31.269Z,12.94
2023-04-01T20:29:28.069Z,12.98
2023-04-01T20:32:07.675Z,13.01
2023-04-01T20:34:43.540Z,12.96
2023-04-01T20:37:29.557Z,12.89
2023-04-01T20:40:27.403Z,12.90
2023-04-01T20:43:21.831Z,12.90
2023-04-01T20:45:58.962Z,12.86
2023-04-01T20:48:53.951Z,12.84
2023-04-01T20:51:35.642Z,12.87
2023-04-01T20:54:39.679Z,12.83
2023-04-01T20:57:18.032Z,12.82
2023-04-01T21:00:36.009Z,12.76
2023-04-01T21:03:17.511Z,12.77
2023-04-01T21:06:11.854Z,12.73
2023-04-01T21:08:55.672Z,12.75
2023-04-01T21:11:44.804Z,12.76
2023-04-01T21:14:38.572Z,12.70
2023-04-01T21:17:17.797Z,12.68
2023-04-01T21:20:10.562Z,12.65
2023-04-01T21:23:08.139Z,12.56
2023-04-01T21:25:45.655Z,12.44
2023-04-01T21:28:46.755Z,12.33
2023-04-01T21:31:44.022Z,12.39
2023-04-01T21:34:52.274Z,12.44
2023-04-01T21:37:32.060Z,12.44
2023-04-01T21:40:28.025Z,12.49
2023-04-01T21:43:30.166Z,12.50
2023-04-01T21:46:00.922Z,12.52
2023-04-01T21:48:42.621Z,12.51
2023-04-01T21:51:46.959Z,12.50
2023-04-01T21:54:55.576Z,12.53
2023-04-01T21:58:03.780Z,12.51
2023-04-01T22:00:38.889Z,12.47
2023-04-01T22:03:27.525Z,12.47
2023-04-01T22:06:19.667Z,12.44
2023-04-01T22:09:13.425Z,12.39
2023-04-01T22:11:54.798Z,12.37
2023-04-01T22:14:32.980Z,12.43
2023-04-01T22:17:07.109Z,12.34
2023-04-01T22:19:39.608Z,12.35
2023-04-01T22:22:08.803Z,12.37
2023-04-01T22:24:44.471Z,12.36
2023-04-01T22:27:41.814Z,12.34
2023-04-01T22:30:18.065Z,12.31
2023-04-01T22:32:48.005Z,12.29
2023-04-01T22:35:41.324Z,12.30
2023-04-01T22:38:16.630Z,12.30
2023-04-01T22:41:08.010Z,12.29
2023-04-01T22:43:40.613Z,12.32
2023-04-01T22:46:22.624Z,12.31
2023-04-01T22:49:12.152Z,12.31
2023-04-01T22:51:48.074Z,12.29
2023-04-01T22:54:34.710Z,12.28
2023-04-01T22:57:01.098Z,12.20
2023-04-01T22:59:38.489Z,12.14
2023-04-01T23:02:15.853Z,12.15
2023-04-01T23:04:48.209Z,12.11
2023-04-01T23:07:32.643Z,12.14
2023-04-01T23:10:02.277Z,12.10
2023-04-01T23:12:31.457Z,12.05
2023-04-01T23:15:00.770Z,12.05
2023-04-01T23:17:43.592Z,12.02
2023-04-01T23:20:24.446Z,12.16
2023-04-01T23:23:12.432Z,12.07
2023-04-01T23:25:57.247Z,12.07
2023-04-01T23:28:41.865Z,12.18
2023-04-01T23:31:35.268Z,12.13
2023-04-01T23:34:13.964Z,12.11
2023-04-01T23:36:44.371Z,12.09
2023-04-01T23:39:33.794Z,12.12
2023-04-01T23:42:17.854Z,12.10
2023-04-01T23:44:44.900Z,12.06
2023-04-01T23:47:18.200Z,12.00
2023-04-01T23:49:52.534Z,12.02
2023-04-01T23:52:24.140Z,11.99
2023-04-01T23:54:56.436Z,11.98
2023-04-01T23:57:28.049Z,12.03
